Roundlake, Mississippi
Current Conditions -  °F | °C
As of 4:15 AM on Wednesday 26 Nov 2014 (Local Time) from KRNV Reporting Station
Clear Clear  
Wind Chill: 31°   Ceiling: Unl
Heat Index: 35°   Visibility: 10mi
Dew Point: 31°   Wind: 5mph
Humidity: 85%   Direction: 160°SSE
Pressure: 30.15"   Gusts: NA
Location:  34.0609°N, 90.7985°W
Report Text: KRNV 261015Z AUTO 16004KT 10SM CLR 02/M01 A3015 RMK AO2 T00171006
Loading
Personal Weather Stations






























Interactive Weather Map New forecast layout! Learn more

10-Day Weather Forecast

Advertisements
Track Severe Weather on mobile